Time;durP1;ratioP1;P1;durP2;ratioP2;P2;SDS_P1;SDS_P2;PMS_P1;PMS_P2;Temp;Humidity;BMP_temperature;BMP_pressure;BME280_temperature;BME280_humidity;BME280_pressure;Samples;Min_cycle;Max_cycle;Signal;HPM_P1;HPM_P2
2021/12/12 00:02:09;;;;;;;60.85;31.02;;;;;;;;;;5054873;28;20065;-62
2021/12/12 00:04:37;;;;;;;54.30;30.35;;;;;;;;;;5047125;28;20049;-61
2021/12/12 00:07:05;;;;;;;59.88;32.25;;;;;;;;;;5043168;28;20053;-61
2021/12/12 00:09:38;;;;;;;58.88;33.03;;;;;;;;;;5032696;28;20129;-61
2021/12/12 00:12:09;;;;;;;61.22;30.90;;;;;;;;;;5043466;28;20053;-61
2021/12/12 00:14:36;;;;;;;57.75;33.25;;;;;;;;;;5053836;28;20072;-61
2021/12/12 00:17:03;;;;;;;57.13;31.80;;;;;;;;;;5063261;27;20531;-61
2021/12/12 00:19:30;;;;;;;63.63;31.80;;;;;;;;;;5146480;27;20070;-61
2021/12/12 00:21:59;;;;;;;53.88;29.80;;;;;;;;;;5121766;28;20084;-60
2021/12/12 00:24:25;;;;;;;63.67;33.58;;;;;;;;;;5119490;27;20076;-59
2021/12/12 00:26:53;;;;;;;67.35;30.63;;;;;;;;;;5146728;27;20050;-60
2021/12/12 00:29:20;;;;;;;60.85;32.53;;;;;;;;;;5146757;27;20112;-60
2021/12/12 00:31:47;;;;;;;57.85;29.98;;;;;;;;;;5146335;27;20707;-60
2021/12/12 00:34:14;;;;;;;59.95;33.90;;;;;;;;;;5146440;27;20062;-61
2021/12/12 00:36:41;;;;;;;65.07;32.88;;;;;;;;;;5147323;27;20051;-60
2021/12/12 00:39:27;;;;;;;63.58;32.95;;;;;;;;;;5147276;27;20050;-60
2021/12/12 00:42:13;;;;;;;64.32;31.27;;;;;;;;;;5145822;27;20043;-60
2021/12/12 00:44:41;;;;;;;62.88;31.90;;;;;;;;;;5147433;27;20081;-60
2021/12/12 00:47:10;;;;;;;59.20;31.55;;;;;;;;;;5147302;27;20184;-61
2021/12/12 00:49:37;;;;;;;65.55;32.75;;;;;;;;;;5146867;27;20099;-61
2021/12/12 00:52:05;;;;;;;59.28;30.95;;;;;;;;;;5146765;27;20502;-62
2021/12/12 00:54:31;;;;;;;65.63;33.20;;;;;;;;;;5147258;27;20099;-59
2021/12/12 00:56:59;;;;;;;65.07;31.15;;;;;;;;;;5147045;27;20545;-61
2021/12/12 00:59:26;;;;;;;61.80;33.65;;;;;;;;;;5147099;27;20078;-62
2021/12/12 01:01:52;;;;;;;63.25;34.35;;;;;;;;;;5147081;27;20078;-60
2021/12/12 01:04:29;;;;;;;66.05;32.35;;;;;;;;;;5146715;27;20122;-61
2021/12/12 01:06:57;;;;;;;67.40;33.77;;;;;;;;;;5146479;27;20597;-61
2021/12/12 01:09:27;;;;;;;72.93;35.55;;;;;;;;;;5147250;27;20068;-60
2021/12/12 01:11:55;;;;;;;67.78;35.08;;;;;;;;;;5146591;27;20437;-60
2021/12/12 01:14:27;;;;;;;58.45;30.02;;;;;;;;;;5146854;27;20195;-60
2021/12/12 01:17:01;;;;;;;68.10;34.90;;;;;;;;;;5146609;27;20039;-60
2021/12/12 01:19:31;;;;;;;60.42;32.85;;;;;;;;;;5146147;27;20043;-60
2021/12/12 01:22:06;;;;;;;63.95;36.47;;;;;;;;;;5146095;27;20054;-61
2021/12/12 01:24:34;;;;;;;75.53;35.75;;;;;;;;;;5146398;27;20129;-61
2021/12/12 01:27:03;;;;;;;60.92;32.25;;;;;;;;;;5146807;27;20045;-60
2021/12/12 01:29:29;;;;;;;77.95;37.30;;;;;;;;;;5146622;27;20047;-61
2021/12/12 01:31:59;;;;;;;67.72;35.45;;;;;;;;;;5146199;27;20050;-61
2021/12/12 01:34:28;;;;;;;61.30;30.42;;;;;;;;;;5143589;27;20074;-61
2021/12/12 01:39:24;;;;;;;78.13;35.92;;;;;;;;;;5146278;27;20039;-60
2021/12/12 01:41:59;;;;;;;63.58;34.88;;;;;;;;;;5146464;27;20043;-61
2021/12/12 01:44:35;;;;;;;66.38;35.30;;;;;;;;;;5146301;27;20043;-61
2021/12/12 01:47:06;;;;;;;70.35;39.08;;;;;;;;;;5146121;27;20043;-61
2021/12/12 01:49:33;;;;;;;71.55;34.95;;;;;;;;;;5145601;27;20046;-60
2021/12/12 01:52:00;;;;;;;87.28;36.85;;;;;;;;;;5145454;27;20050;-61
2021/12/12 01:54:30;;;;;;;76.95;36.65;;;;;;;;;;5127358;27;20719;-62
2021/12/12 01:56:59;;;;;;;67.18;34.65;;;;;;;;;;5146124;27;20046;-60
2021/12/12 01:59:27;;;;;;;79.93;37.75;;;;;;;;;;5145844;27;20130;-61
2021/12/12 02:02:04;;;;;;;87.18;39.33;;;;;;;;;;5127055;27;20502;-61
2021/12/12 02:04:32;;;;;;;90.95;38.20;;;;;;;;;;5133314;27;20494;-61
2021/12/12 02:06:58;;;;;;;87.20;38.30;;;;;;;;;;5124830;28;20553;-61
2021/12/12 02:09:25;;;;;;;78.75;38.08;;;;;;;;;;5124952;28;20043;-60
2021/12/12 02:11:56;;;;;;;79.97;39.60;;;;;;;;;;5125248;28;20047;-59
2021/12/12 02:14:23;;;;;;;82.10;38.97;;;;;;;;;;5142467;27;20118;-61
2021/12/12 02:16:51;;;;;;;75.68;38.70;;;;;;;;;;5145488;27;20043;-60
2021/12/12 02:19:17;;;;;;;;;;;;;;;;;;5145931;27;20047;-59
2021/12/12 02:22:02;;;;;;;73.65;36.40;;;;;;;;;;5144938;27;19930;-61
2021/12/12 02:37:59;;;;;;;77.22;36.60;;;;;;;;;;5125219;28;20073;-59
2021/12/12 02:40:25;;;;;;;;;;;;;;;;;;5124974;28;20051;-60
2021/12/12 02:42:52;;;;;;;83.35;38.15;;;;;;;;;;5124894;28;19940;-60
2021/12/12 02:45:20;;;;;;;68.57;34.22;;;;;;;;;;5133085;28;20074;-60
2021/12/12 02:47:53;;;;;;;69.05;35.55;;;;;;;;;;5145562;28;20107;-61
2021/12/12 02:50:21;;;;;;;79.35;35.08;;;;;;;;;;5144773;28;20051;-60
2021/12/12 02:52:50;;;;;;;77.03;34.95;;;;;;;;;;5145739;28;20533;-59
2021/12/12 02:55:28;;;;;;;81.47;36.97;;;;;;;;;;5145173;28;20126;-60
2021/12/12 02:57:54;;;;;;;73.97;34.83;;;;;;;;;;5145341;28;20050;-59
2021/12/12 03:00:23;;;;;;;73.35;35.40;;;;;;;;;;5145088;28;20063;-60
2021/12/12 03:02:56;;;;;;;73.38;34.53;;;;;;;;;;5145047;28;20443;-60
2021/12/12 03:05:23;;;;;;;78.15;35.70;;;;;;;;;;5144776;28;20039;-60
2021/12/12 03:07:49;;;;;;;57.63;29.20;;;;;;;;;;5145502;28;20047;-59
2021/12/12 03:10:17;;;;;;;65.47;31.52;;;;;;;;;;5144864;28;20043;-60
2021/12/12 03:12:43;;;;;;;73.00;32.17;;;;;;;;;;5144682;27;20043;-60
2021/12/12 03:15:20;;;;;;;67.90;34.40;;;;;;;;;;5147493;27;20047;-60
2021/12/12 03:17:48;;;;;;;57.58;30.98;;;;;;;;;;5148823;27;20039;-60
2021/12/12 03:20:26;;;;;;;67.20;32.25;;;;;;;;;;5148191;27;20043;-59
2021/12/12 03:22:54;;;;;;;86.85;35.38;;;;;;;;;;5148565;27;20092;-60
2021/12/12 03:25:20;;;;;;;;;;;;;;;;;;5149379;27;20046;-61
2021/12/12 03:27:46;;;;;;;64.70;29.05;;;;;;;;;;5149013;27;19954;-60
2021/12/12 03:30:12;;;;;;;76.57;31.83;;;;;;;;;;5149001;27;20433;-60
2021/12/12 03:32:38;;;;;;;61.75;32.25;;;;;;;;;;5129871;27;20062;-60
2021/12/12 03:35:06;;;;;;;63.83;28.75;;;;;;;;;;5148456;27;20039;-60
2021/12/12 03:37:33;;;;;;;59.55;27.50;;;;;;;;;;5149138;27;20490;-61
2021/12/12 03:40:01;;;;;;;34.70;20.67;;;;;;;;;;5148525;27;20565;-60
2021/12/12 03:42:29;;;;;;;57.50;27.23;;;;;;;;;;5148321;27;20043;-59
2021/12/12 03:44:55;;;;;;;;;;;;;;;;;;5149098;27;20057;-60
2021/12/12 03:47:28;;;;;;;41.22;23.58;;;;;;;;;;5148656;27;19919;-60
2021/12/12 03:49:55;;;;;;;53.55;24.83;;;;;;;;;;5148351;27;20122;-60
2021/12/12 03:52:21;;;;;;;44.42;24.77;;;;;;;;;;5147852;27;20035;-60
2021/12/12 03:54:49;;;;;;;49.20;23.60;;;;;;;;;;5148156;27;20077;-60
2021/12/12 03:57:16;;;;;;;52.63;25.60;;;;;;;;;;5148156;27;20054;-60
2021/12/12 03:59:42;;;;;;;48.25;24.10;;;;;;;;;;5148546;27;20104;-60
2021/12/12 04:02:09;;;;;;;38.30;20.73;;;;;;;;;;5129716;27;20054;-60
2021/12/12 04:04:39;;;;;;;45.22;23.25;;;;;;;;;;5146635;27;20042;-60
2021/12/12 04:07:11;;;;;;;36.25;21.10;;;;;;;;;;5148281;27;20095;-60
2021/12/12 04:09:37;;;;;;;43.90;24.00;;;;;;;;;;5147984;27;20133;-59
2021/12/12 04:12:05;;;;;;;35.50;19.90;;;;;;;;;;5147595;27;20391;-61
2021/12/12 04:14:31;;;;;;;;;;;;;;;;;;5148599;27;20118;-59
2021/12/12 04:17:00;;;;;;;27.52;16.92;;;;;;;;;;5147974;27;19946;-60
2021/12/12 04:19:27;;;;;;;34.53;18.02;;;;;;;;;;5147924;27;20043;-61
2021/12/12 04:21:54;;;;;;;35.90;18.80;;;;;;;;;;5147475;27;20055;-61
2021/12/12 04:24:21;;;;;;;33.72;20.42;;;;;;;;;;5147506;27;20039;-61
2021/12/12 04:26:48;;;;;;;29.58;18.05;;;;;;;;;;5147581;27;20046;-61
2021/12/12 04:29:14;;;;;;;31.65;19.20;;;;;;;;;;5147790;27;20062;-61
2021/12/12 04:31:42;;;;;;;27.80;18.15;;;;;;;;;;5128968;27;20491;-61
2021/12/12 04:34:08;;;;;;;32.20;20.17;;;;;;;;;;5147409;27;20090;-60
2021/12/12 04:36:38;;;;;;;31.60;18.92;;;;;;;;;;5147612;27;20051;-60
2021/12/12 04:39:09;;;;;;;28.70;16.35;;;;;;;;;;5147359;27;20043;-61
2021/12/12 04:41:36;;;;;;;26.65;19.30;;;;;;;;;;5147264;27;20046;-60
2021/12/12 04:44:02;;;;;;;21.38;15.48;;;;;;;;;;5147555;27;20086;-60
2021/12/12 04:49:54;;;;;;;32.67;18.90;;;;;;;;;;5147113;27;20053;-60
2021/12/12 04:52:04;;;;;;;25.23;16.60;;;;;;;;;;5146319;27;20089;-60
2021/12/12 04:54:39;;;;;;;28.90;18.95;;;;;;;;;;5147504;27;20047;-60
2021/12/12 04:57:05;;;;;;;32.65;20.42;;;;;;;;;;5147479;27;20199;-59
2021/12/12 04:59:46;;;;;;;32.03;19.42;;;;;;;;;;5129021;27;20051;-60
2021/12/12 05:02:18;;;;;;;32.88;18.77;;;;;;;;;;5128397;27;20047;-59
2021/12/12 05:04:47;;;;;;;30.85;18.63;;;;;;;;;;5128597;27;20129;-60
2021/12/12 05:07:17;;;;;;;20.17;13.57;;;;;;;;;;5146640;27;20086;-61
2021/12/12 05:09:49;;;;;;;30.27;17.83;;;;;;;;;;5146826;27;20121;-61
2021/12/12 05:12:15;;;;;;;22.50;15.85;;;;;;;;;;5146952;27;20051;-60
2021/12/12 05:14:45;;;;;;;31.25;18.98;;;;;;;;;;5147031;27;20111;-60
2021/12/12 05:17:15;;;;;;;25.60;16.65;;;;;;;;;;5128595;27;20047;-60
2021/12/12 05:19:45;;;;;;;25.05;17.17;;;;;;;;;;5128340;27;20067;-60
2021/12/12 05:22:15;;;;;;;24.48;16.95;;;;;;;;;;5145919;27;20043;-61
2021/12/12 05:24:41;;;;;;;24.20;16.30;;;;;;;;;;5146532;27;20102;-61
2021/12/12 05:27:10;;;;;;;21.08;14.75;;;;;;;;;;5146932;27;20082;-61
2021/12/12 05:29:44;;;;;;;23.95;15.88;;;;;;;;;;5128468;27;20064;-60
2021/12/12 05:32:12;;;;;;;27.90;17.48;;;;;;;;;;5146072;27;20039;-61
2021/12/12 05:34:40;;;;;;;23.65;16.98;;;;;;;;;;5146064;27;20115;-60
2021/12/12 05:37:06;;;;;;;22.58;13.80;;;;;;;;;;5145258;27;20047;-60
2021/12/12 05:39:33;;;;;;;28.75;15.95;;;;;;;;;;5127499;27;20058;-61
2021/12/12 05:41:59;;;;;;;24.63;16.73;;;;;;;;;;5145933;27;20039;-60
2021/12/12 05:44:28;;;;;;;19.23;14.05;;;;;;;;;;5128295;27;20051;-60
2021/12/12 05:46:55;;;;;;;21.63;14.90;;;;;;;;;;5146245;27;20098;-60
2021/12/12 05:49:21;;;;;;;23.98;13.82;;;;;;;;;;5146115;27;20058;-60
2021/12/12 05:51:47;;;;;;;26.38;14.93;;;;;;;;;;5145246;27;20052;-60
2021/12/12 05:54:13;;;;;;;21.48;16.27;;;;;;;;;;5127550;27;20133;-60
2021/12/12 05:56:40;;;;;;;21.58;14.57;;;;;;;;;;5146478;27;20114;-60
2021/12/12 05:59:08;;;;;;;23.98;14.90;;;;;;;;;;5146081;27;20047;-61
2021/12/12 06:01:34;;;;;;;26.02;16.77;;;;;;;;;;5145523;27;20039;-60
2021/12/12 06:04:00;;;;;;;23.75;14.80;;;;;;;;;;5140494;27;20051;-60
2021/12/12 06:06:35;;;;;;;24.30;16.17;;;;;;;;;;5106671;28;20047;-61
2021/12/12 06:09:03;;;;;;;20.52;14.38;;;;;;;;;;5125291;28;20076;-61
2021/12/12 06:11:31;;;;;;;27.05;16.27;;;;;;;;;;5141280;27;20187;-61
2021/12/12 06:13:57;;;;;;;27.48;16.02;;;;;;;;;;5127790;27;20123;-60
2021/12/12 06:16:24;;;;;;;28.20;16.73;;;;;;;;;;5145711;27;20053;-59
2021/12/12 06:18:56;;;;;;;27.00;15.70;;;;;;;;;;5127387;27;20059;-61
2021/12/12 06:21:22;;;;;;;25.73;14.90;;;;;;;;;;5144776;27;20043;-60
2021/12/12 06:23:48;;;;;;;22.83;15.15;;;;;;;;;;5107060;28;20051;-61
2021/12/12 06:26:16;;;;;;;23.40;15.77;;;;;;;;;;5125079;28;20078;-61
2021/12/12 06:28:42;;;;;;;24.20;15.95;;;;;;;;;;5125312;28;20054;-61
2021/12/12 06:31:09;;;;;;;23.38;15.75;;;;;;;;;;5121506;28;20077;-61
2021/12/12 06:33:37;;;;;;;20.63;15.18;;;;;;;;;;5145193;27;20443;-61
2021/12/12 06:36:03;;;;;;;;;;;;;;;;;;5145570;28;20043;-60
2021/12/12 06:38:29;;;;;;;17.85;12.00;;;;;;;;;;5145604;28;20339;-60
2021/12/12 06:40:56;;;;;;;19.67;12.25;;;;;;;;;;5145314;28;20118;-60
2021/12/12 06:43:22;;;;;;;16.30;12.13;;;;;;;;;;5127145;28;20486;-60
2021/12/12 06:45:49;;;;;;;21.20;15.45;;;;;;;;;;5145355;28;20074;-61
2021/12/12 06:48:16;;;;;;;23.55;14.93;;;;;;;;;;5146566;27;20526;-61
2021/12/12 06:50:43;;;;;;;24.45;15.50;;;;;;;;;;5129947;27;20043;-61
2021/12/12 06:53:09;;;;;;;22.63;14.73;;;;;;;;;;5131252;27;20473;-60
2021/12/12 06:55:39;;;;;;;18.48;12.68;;;;;;;;;;5149534;27;20490;-60
2021/12/12 06:58:07;;;;;;;24.23;14.95;;;;;;;;;;5131353;27;20108;-60
2021/12/12 07:00:34;;;;;;;21.63;14.70;;;;;;;;;;5149197;27;20059;-60
2021/12/12 07:03:00;;;;;;;24.13;16.57;;;;;;;;;;5130944;27;20039;-59
2021/12/12 07:05:27;;;;;;;26.20;15.52;;;;;;;;;;5148878;27;20795;-61
2021/12/12 07:07:54;;;;;;;25.25;16.55;;;;;;;;;;5130373;27;20068;-61
2021/12/12 07:10:22;;;;;;;22.00;14.32;;;;;;;;;;5130998;27;20043;-59
2021/12/12 07:12:54;;;;;;;26.50;15.88;;;;;;;;;;5130744;27;20392;-60
2021/12/12 07:15:21;;;;;;;26.33;16.75;;;;;;;;;;5149112;27;20416;-60
2021/12/12 07:17:48;;;;;;;24.25;15.90;;;;;;;;;;5148969;27;20047;-60
2021/12/12 07:20:14;;;;;;;28.70;16.75;;;;;;;;;;5148500;27;20106;-61
2021/12/12 07:22:41;;;;;;;27.13;16.10;;;;;;;;;;5149162;27;20075;-61
2021/12/12 07:25:08;;;;;;;28.25;17.08;;;;;;;;;;5148986;27;20092;-61
2021/12/12 07:27:34;;;;;;;25.65;17.25;;;;;;;;;;5130296;27;20114;-59
2021/12/12 07:30:01;;;;;;;26.23;16.83;;;;;;;;;;5148933;27;20130;-60
2021/12/12 07:32:28;;;;;;;25.70;17.17;;;;;;;;;;5148816;27;20043;-61
2021/12/12 07:34:54;;;;;;;30.63;17.10;;;;;;;;;;5148227;27;20307;-61
2021/12/12 07:37:21;;;;;;;30.58;17.20;;;;;;;;;;5148529;27;20051;-60
2021/12/12 07:39:48;;;;;;;38.67;19.15;;;;;;;;;;5148769;27;20103;-60
2021/12/12 07:42:15;;;;;;;29.10;17.70;;;;;;;;;;5130283;27;20058;-61
2021/12/12 07:44:43;;;;;;;25.48;15.80;;;;;;;;;;5148753;27;20043;-60
2021/12/12 07:47:11;;;;;;;33.30;18.05;;;;;;;;;;5129646;27;20501;-60
2021/12/12 07:49:39;;;;;;;31.58;18.10;;;;;;;;;;5148449;27;20513;-61
2021/12/12 07:52:06;;;;;;;23.10;15.13;;;;;;;;;;5148189;27;20126;-60
2021/12/12 07:54:33;;;;;;;35.17;18.83;;;;;;;;;;5129483;27;20099;-60
2021/12/12 07:56:59;;;;;;;34.10;19.23;;;;;;;;;;5147607;27;20059;-61
2021/12/12 07:59:26;;;;;;;31.77;17.50;;;;;;;;;;5147195;27;20043;-60
2021/12/12 08:01:53;;;;;;;34.30;18.20;;;;;;;;;;5147880;27;20078;-60
2021/12/12 08:04:21;;;;;;;35.60;17.73;;;;;;;;;;5127779;27;20043;-60
2021/12/12 08:06:48;;;;;;;29.40;17.27;;;;;;;;;;5147327;27;20537;-61
2021/12/12 08:09:14;;;;;;;34.35;18.42;;;;;;;;;;5148070;27;20122;-60
2021/12/12 08:11:41;;;;;;;33.15;19.48;;;;;;;;;;5147413;27;20066;-60
2021/12/12 08:14:10;;;;;;;36.35;19.92;;;;;;;;;;5148059;27;20043;-60
2021/12/12 08:16:36;;;;;;;33.28;18.15;;;;;;;;;;5147347;27;20567;-59
2021/12/12 08:19:03;;;;;;;26.58;15.75;;;;;;;;;;5146813;27;20527;-61
2021/12/12 08:21:33;;;;;;;37.90;19.20;;;;;;;;;;5145442;27;20046;-61
2021/12/12 08:24:00;;;;;;;26.83;17.58;;;;;;;;;;5120892;27;20059;-61
2021/12/12 08:26:28;;;;;;;32.17;18.27;;;;;;;;;;5144142;27;20043;-60
2021/12/12 08:28:54;;;;;;;;;;;;;;;;;;5142316;27;20047;-61
2021/12/12 08:31:20;;;;;;;36.83;20.02;;;;;;;;;;5139777;27;19927;-61
2021/12/12 08:33:46;;;;;;;41.80;19.98;;;;;;;;;;5145499;27;20090;-62
2021/12/12 08:36:15;;;;;;;40.92;19.80;;;;;;;;;;5145762;27;20047;-61
2021/12/12 08:38:41;;;;;;;32.70;17.50;;;;;;;;;;5146533;27;20039;-61
2021/12/12 08:41:07;;;;;;;45.17;21.83;;;;;;;;;;5127574;27;20051;-61
2021/12/12 08:43:34;;;;;;;43.05;20.80;;;;;;;;;;5145665;27;20082;-61
2021/12/12 08:46:02;;;;;;;38.65;20.38;;;;;;;;;;5145840;27;20096;-60
2021/12/12 08:48:31;;;;;;;45.05;22.42;;;;;;;;;;5146026;27;20438;-61
2021/12/12 08:50:59;;;;;;;40.67;21.88;;;;;;;;;;5145813;27;20431;-60
2021/12/12 08:53:27;;;;;;;42.10;20.27;;;;;;;;;;5147453;27;20127;-60
2021/12/12 08:55:54;;;;;;;48.60;23.33;;;;;;;;;;5146304;27;20099;-61
2021/12/12 08:58:22;;;;;;;53.28;21.98;;;;;;;;;;5146279;27;20039;-61
2021/12/12 09:00:54;;;;;;;52.63;23.17;;;;;;;;;;5142911;27;20046;-63
2021/12/12 09:03:25;;;;;;;44.45;21.13;;;;;;;;;;5143452;27;20121;-61
2021/12/12 09:05:51;;;;;;;48.10;21.60;;;;;;;;;;5143355;27;20127;-62
2021/12/12 09:08:22;;;;;;;53.25;23.98;;;;;;;;;;5144676;27;20047;-61
2021/12/12 09:10:56;;;;;;;54.97;24.60;;;;;;;;;;5141330;27;20073;-62
2021/12/12 09:13:26;;;;;;;51.60;23.63;;;;;;;;;;5140743;27;20051;-61
2021/12/12 09:16:11;;;;;;;48.40;22.15;;;;;;;;;;5138359;27;20057;-61
2021/12/12 09:18:40;;;;;;;56.83;24.63;;;;;;;;;;5120334;27;20050;-61
2021/12/12 09:21:13;;;;;;;51.97;23.98;;;;;;;;;;5143522;27;20043;-60
2021/12/12 09:23:50;;;;;;;59.95;24.38;;;;;;;;;;5128903;27;20047;-62
2021/12/12 09:26:19;;;;;;;59.13;26.35;;;;;;;;;;5138113;27;20048;-61
2021/12/12 09:28:50;;;;;;;62.83;25.95;;;;;;;;;;5117309;27;20231;-62
2021/12/12 09:31:18;;;;;;;64.20;26.73;;;;;;;;;;5124770;27;20135;-62
2021/12/12 09:33:54;;;;;;;66.72;26.42;;;;;;;;;;5144390;27;20417;-63
2021/12/12 09:36:23;;;;;;;80.13;28.52;;;;;;;;;;5138831;27;20050;-62
2021/12/12 09:38:54;;;;;;;69.45;26.48;;;;;;;;;;5145156;27;20034;-62
2021/12/12 09:41:35;;;;;;;73.63;30.60;;;;;;;;;;5145574;27;20098;-63
2021/12/12 09:44:29;;;;;;;80.40;29.92;;;;;;;;;;5121800;27;20055;-61
2021/12/12 09:47:36;;;;;;;83.70;28.70;;;;;;;;;;5145250;27;20081;-61
2021/12/12 09:52:55;;;;;;;88.07;31.60;;;;;;;;;;5140517;27;20043;-61
2021/12/12 09:55:27;;;;;;;85.78;29.35;;;;;;;;;;5119641;28;20047;-61
2021/12/12 09:58:00;;;;;;;132.85;33.03;;;;;;;;;;5120852;27;20086;-61
2021/12/12 10:00:46;;;;;;;101.72;31.60;;;;;;;;;;5121018;27;20058;-61
2021/12/12 10:03:29;;;;;;;99.25;31.98;;;;;;;;;;5140343;27;20058;-61
2021/12/12 10:06:06;;;;;;;101.03;33.83;;;;;;;;;;5140158;27;20095;-61
2021/12/12 10:08:37;;;;;;;111.35;33.88;;;;;;;;;;5143616;27;20050;-62
2021/12/12 10:11:08;;;;;;;116.18;34.67;;;;;;;;;;5122742;27;20070;-61
2021/12/12 10:13:45;;;;;;;108.45;35.67;;;;;;;;;;5141381;27;20047;-61
2021/12/12 10:16:25;;;;;;;108.50;33.53;;;;;;;;;;5140461;27;20063;-62
2021/12/12 10:19:00;;;;;;;130.85;35.65;;;;;;;;;;5121542;27;20046;-62
2021/12/12 10:21:30;;;;;;;82.15;30.95;;;;;;;;;;5142407;27;20042;-62
2021/12/12 10:24:02;;;;;;;105.55;34.65;;;;;;;;;;5143813;27;20039;-62
2021/12/12 10:26:54;;;;;;;112.70;33.78;;;;;;;;;;5120441;28;20406;-62
2021/12/12 10:29:22;;;;;;;105.80;32.78;;;;;;;;;;5121215;27;20076;-62
2021/12/12 10:31:58;;;;;;;112.75;35.85;;;;;;;;;;5142640;27;20043;-62
2021/12/12 10:34:33;;;;;;;107.63;32.40;;;;;;;;;;5122213;28;20072;-62
2021/12/12 10:37:05;;;;;;;97.45;33.35;;;;;;;;;;5141354;27;20100;-62
2021/12/12 10:39:34;;;;;;;109.70;34.10;;;;;;;;;;5122446;28;20122;-62
2021/12/12 10:42:02;;;;;;;94.53;32.55;;;;;;;;;;5142963;28;20039;-61
2021/12/12 10:44:41;;;;;;;87.18;30.67;;;;;;;;;;5137223;28;20047;-60
2021/12/12 10:47:20;;;;;;;96.80;31.73;;;;;;;;;;5141178;28;20051;-62
2021/12/12 10:50:10;;;;;;;79.35;26.05;;;;;;;;;;5142802;28;20051;-62
2021/12/12 10:52:39;;;;;;;99.70;33.03;;;;;;;;;;5125135;28;20080;-62
2021/12/12 10:55:13;;;;;;;93.93;30.60;;;;;;;;;;5136813;28;20039;-62
2021/12/12 10:57:40;;;;;;;86.97;30.58;;;;;;;;;;5140610;28;20047;-62
2021/12/12 11:00:09;;;;;;;94.65;30.45;;;;;;;;;;5138276;28;20055;-62
2021/12/12 11:02:41;;;;;;;97.53;31.50;;;;;;;;;;5140144;28;20047;-62
2021/12/12 11:05:13;;;;;;;78.10;25.75;;;;;;;;;;5138910;28;20488;-62
2021/12/12 11:07:51;;;;;;;86.65;30.60;;;;;;;;;;5140366;28;20039;-62
2021/12/12 11:10:23;;;;;;;70.30;25.35;;;;;;;;;;5121608;28;20050;-62
2021/12/12 11:12:56;;;;;;;92.10;28.30;;;;;;;;;;5142621;28;20126;-63
2021/12/12 11:15:22;;;;;;;85.25;28.15;;;;;;;;;;5142174;28;20043;-61
2021/12/12 11:18:07;;;;;;;82.93;27.40;;;;;;;;;;5115988;28;20035;-62
2021/12/12 11:20:35;;;;;;;81.47;27.77;;;;;;;;;;5133116;28;20047;-62
2021/12/12 11:23:06;;;;;;;85.13;27.23;;;;;;;;;;5135788;28;20093;-62
2021/12/12 11:25:41;;;;;;;72.45;27.92;;;;;;;;;;5136211;28;20045;-62
2021/12/12 11:28:11;;;;;;;62.17;24.55;;;;;;;;;;5130541;28;20035;-62
2021/12/12 11:30:44;;;;;;;65.63;23.27;;;;;;;;;;5139325;28;20047;-62
2021/12/12 11:33:12;;;;;;;64.72;22.50;;;;;;;;;;5138703;28;20106;-62
2021/12/12 11:35:41;;;;;;;62.60;23.15;;;;;;;;;;5140441;27;20067;-62
2021/12/12 11:38:14;;;;;;;47.03;19.77;;;;;;;;;;5144747;27;20069;-62
2021/12/12 11:40:41;;;;;;;56.55;22.10;;;;;;;;;;5146151;27;20043;-62
2021/12/12 11:43:10;;;;;;;58.35;23.48;;;;;;;;;;5145437;27;20031;-61
2021/12/12 11:45:48;;;;;;;55.67;21.65;;;;;;;;;;5126128;27;20050;-61
2021/12/12 11:48:15;;;;;;;61.55;22.33;;;;;;;;;;5141817;27;20046;-62
2021/12/12 11:50:46;;;;;;;54.03;21.65;;;;;;;;;;5142965;27;20048;-62
2021/12/12 11:53:12;;;;;;;50.75;20.08;;;;;;;;;;5144842;27;20746;-61
2021/12/12 11:55:58;;;;;;;58.25;22.83;;;;;;;;;;5145541;27;20047;-61
2021/12/12 11:58:27;;;;;;;44.35;19.15;;;;;;;;;;5144445;27;20047;-61
2021/12/12 12:01:14;;;;;;;35.92;15.98;;;;;;;;;;5138665;27;20043;-62
2021/12/12 12:03:59;;;;;;;63.30;22.35;;;;;;;;;;5142091;27;20048;-62
2021/12/12 12:06:25;;;;;;;33.15;16.42;;;;;;;;;;5125844;27;20673;-62
2021/12/12 12:09:10;;;;;;;49.35;21.27;;;;;;;;;;5145004;27;20063;-62
2021/12/12 12:11:36;;;;;;;48.15;20.67;;;;;;;;;;5142668;27;20447;-62
2021/12/12 12:14:18;;;;;;;53.90;21.25;;;;;;;;;;5142486;27;20043;-62
2021/12/12 12:16:51;;;;;;;42.50;19.83;;;;;;;;;;5123772;27;20043;-62
2021/12/12 12:19:17;;;;;;;40.22;19.15;;;;;;;;;;5139855;27;20045;-62
2021/12/12 12:21:49;;;;;;;47.33;18.77;;;;;;;;;;5143366;27;20106;-62
2021/12/12 12:24:22;;;;;;;48.03;20.58;;;;;;;;;;5124080;27;20071;-62
2021/12/12 12:27:03;;;;;;;40.65;18.10;;;;;;;;;;5141961;27;20877;-62
2021/12/12 12:29:33;;;;;;;44.28;19.88;;;;;;;;;;5139762;27;20061;-61
2021/12/12 12:32:05;;;;;;;33.08;16.33;;;;;;;;;;5135175;27;20454;-61
2021/12/12 12:34:50;;;;;;;47.58;19.25;;;;;;;;;;5139684;27;20047;-61
2021/12/12 12:37:36;;;;;;;47.38;18.60;;;;;;;;;;5139453;27;20057;-62
2021/12/12 12:40:20;;;;;;;46.53;18.13;;;;;;;;;;5140200;27;20043;-61
2021/12/12 12:43:06;;;;;;;42.20;18.20;;;;;;;;;;5119476;27;20535;-62
2021/12/12 12:45:37;;;;;;;40.63;16.65;;;;;;;;;;5141912;27;20043;-62
2021/12/12 12:48:13;;;;;;;44.67;18.00;;;;;;;;;;5121850;27;20051;-63
2021/12/12 12:51:02;;;;;;;45.58;18.23;;;;;;;;;;5124786;27;20529;-63
2021/12/12 12:53:57;;;;;;;41.55;17.35;;;;;;;;;;5140037;27;20055;-62
2021/12/12 12:56:42;;;;;;;47.00;18.30;;;;;;;;;;5142496;27;20111;-62
2021/12/12 12:59:23;;;;;;;53.10;19.38;;;;;;;;;;5141733;27;20047;-62
2021/12/12 13:01:53;;;;;;;31.80;15.43;;;;;;;;;;5136736;27;20050;-65
2021/12/12 13:04:25;;;;;;;50.47;18.58;;;;;;;;;;5140755;27;20450;-65
2021/12/12 13:07:08;;;;;;;38.17;16.55;;;;;;;;;;5136048;27;20075;-67
2021/12/12 13:09:43;;;;;;;39.53;18.92;;;;;;;;;;5143260;27;20047;-63
2021/12/12 13:12:09;;;;;;;53.53;19.45;;;;;;;;;;5143222;27;20063;-63
2021/12/12 13:14:35;;;;;;;45.83;18.00;;;;;;;;;;5141717;27;20035;-63
2021/12/12 13:17:39;;;;;;;44.42;19.27;;;;;;;;;;5145217;27;20043;-62
2021/12/12 13:20:26;;;;;;;50.28;20.40;;;;;;;;;;5077010;28;20064;-63
2021/12/12 13:23:11;;;;;;;41.97;17.63;;;;;;;;;;5066388;28;20076;-63
2021/12/12 13:25:47;;;;;;;42.92;19.63;;;;;;;;;;5060108;28;20194;-63
2021/12/12 13:28:21;;;;;;;47.40;19.42;;;;;;;;;;5075412;28;20191;-63
2021/12/12 13:31:13;;;;;;;38.85;18.08;;;;;;;;;;5077458;28;20063;-63
2021/12/12 13:33:43;;;;;;;42.30;18.63;;;;;;;;;;5075955;28;20052;-64
2021/12/12 13:36:16;;;;;;;32.35;13.82;;;;;;;;;;5078231;28;20106;-62
2021/12/12 13:38:49;;;;;;;45.10;18.35;;;;;;;;;;5062337;28;20128;-63
2021/12/12 13:41:27;;;;;;;47.95;18.65;;;;;;;;;;5078205;28;20058;-62
2021/12/12 13:44:12;;;;;;;43.30;18.05;;;;;;;;;;5075890;28;20059;-66
2021/12/12 13:46:42;;;;;;;37.33;17.23;;;;;;;;;;5077186;28;20044;-64
2021/12/12 13:49:13;;;;;;;41.72;18.08;;;;;;;;;;5078302;28;20048;-63
2021/12/12 13:51:49;;;;;;;33.50;15.25;;;;;;;;;;5076316;28;20076;-64
2021/12/12 13:54:21;;;;;;;31.80;15.80;;;;;;;;;;5075430;28;20106;-61
2021/12/12 13:56:52;;;;;;;40.20;18.00;;;;;;;;;;5137019;27;20050;-63
2021/12/12 13:59:18;;;;;;;36.25;17.30;;;;;;;;;;5140874;27;20043;-64
2021/12/12 14:01:46;;;;;;;32.40;14.93;;;;;;;;;;5121426;27;20083;-69
2021/12/12 14:04:18;;;;;;;36.50;16.63;;;;;;;;;;5134736;27;20107;-68
2021/12/12 14:06:45;;;;;;;31.23;14.77;;;;;;;;;;5138086;27;20076;-68
2021/12/12 14:09:18;;;;;;;27.83;15.10;;;;;;;;;;5121443;27;20534;-69
2021/12/12 14:11:45;;;;;;;33.03;15.52;;;;;;;;;;5123768;27;20457;-68
2021/12/12 14:14:18;;;;;;;26.90;13.40;;;;;;;;;;5142581;27;20031;-67
2021/12/12 14:16:46;;;;;;;30.70;15.10;;;;;;;;;;5140301;27;20167;-66
2021/12/12 14:19:12;;;;;;;;;;;;;;;;;;5122187;27;20137;-61
2021/12/12 14:21:38;;;;;;;29.58;15.40;;;;;;;;;;5141508;27;19946;-66
2021/12/12 14:24:05;;;;;;;26.17;13.98;;;;;;;;;;5141128;27;20043;-61
2021/12/12 14:26:34;;;;;;;26.90;13.25;;;;;;;;;;5139077;27;20113;-66
2021/12/12 14:29:01;;;;;;;28.55;14.75;;;;;;;;;;5144077;27;20492;-65
2021/12/12 14:31:32;;;;;;;27.77;15.05;;;;;;;;;;5124541;27;20099;-65
2021/12/12 14:34:04;;;;;;;29.48;14.95;;;;;;;;;;5143434;27;20055;-66
2021/12/12 14:36:32;;;;;;;30.77;16.50;;;;;;;;;;5143054;27;20039;-65
2021/12/12 14:38:59;;;;;;;28.75;15.32;;;;;;;;;;5123469;28;20076;-65
2021/12/12 14:41:38;;;;;;;31.23;15.10;;;;;;;;;;5125387;28;20058;-65
2021/12/12 14:44:06;;;;;;;30.10;14.93;;;;;;;;;;5137447;28;20458;-64
2021/12/12 14:46:37;;;;;;;36.08;15.27;;;;;;;;;;5139546;28;20039;-64
2021/12/12 14:49:15;;;;;;;25.10;14.32;;;;;;;;;;5113910;28;20043;-65
2021/12/12 14:51:54;;;;;;;29.42;14.68;;;;;;;;;;5140676;28;20050;-65
2021/12/12 14:54:22;;;;;;;34.10;15.48;;;;;;;;;;5142433;28;20133;-64
2021/12/12 14:57:00;;;;;;;29.05;15.13;;;;;;;;;;5119923;28;20071;-65
2021/12/12 14:59:29;;;;;;;37.17;16.38;;;;;;;;;;5137663;28;20075;-65
2021/12/12 15:01:57;;;;;;;28.27;15.18;;;;;;;;;;5136469;28;20039;-64